YAYE/AYQ METAR and TAF weather

Enter ICAO airport designator
Station Type Date Time Source
YAYE METAR 2019/02/16 07:00 UTC NOAA

YAYE 160700Z AUTO 07010KT 050V110 9999 // NCD 37/M07 Q1012


Station Type Date Time Source
YAYE Decoded METAR 2019/02/16 07:00 UTC NOAA

Ayers Rock, Australia (YAYE) 25-11S 130-58E
Feb 16, 2019 - 02:00 AM EST / 2019.02.16 0700 UTC
Wind: from the ENE (070 degrees) at 12 MPH (10 KT) (direction variable):0
Visibility: greater than 7 mile(s):0
Temperature: 98 F (37 C)
Dew Point: 19 F (-7 C)
Relative Humidity: 5%
Pressure (altimeter): 29.88 in. Hg (1012 hPa)
ob: YAYE 160700Z AUTO 07010KT 050V110 9999 // NCD 37/M07 Q1012
cycle: 7

Station Type Date Time Source
YAYE TAF UTC NOAA

Error!


Example: see airport list